Time;durP1;ratioP1;P1;durP2;ratioP2;P2;SDS_P1;SDS_P2;PMS_P1;PMS_P2;Temp;Humidity;BMP_temperature;BMP_pressure;BME280_temperature;BME280_humidity;BME280_pressure;Samples;Min_cycle;Max_cycle;Signal;HPM_P1;HPM_P2
2024/01/29 00:01:23;;;;;;;2.10;1.40;;;15.80;42.50;;;;;;5149067;27;45340;-51
2024/01/29 00:03:50;;;;;;;3.17;1.50;;;15.70;42.40;;;;;;5151333;27;45222;-51
2024/01/29 00:06:18;;;;;;;2.85;1.45;;;15.80;42.40;;;;;;5149323;27;45349;-51
2024/01/29 00:08:45;;;;;;;4.93;1.50;;;15.80;42.40;;;;;;5152194;27;45159;-51
2024/01/29 00:11:12;;;;;;;1.75;1.30;;;15.80;42.50;;;;;;5150416;27;45314;-51
2024/01/29 00:13:39;;;;;;;2.97;1.67;;;15.80;42.50;;;;;;5151059;27;47036;-51
2024/01/29 00:16:06;;;;;;;2.38;1.52;;;15.80;42.30;;;;;;5150281;27;45217;-51
2024/01/29 00:18:33;;;;;;;2.85;1.58;;;15.80;42.30;;;;;;5152185;27;45158;-51
2024/01/29 00:21:00;;;;;;;2.65;1.38;;;15.80;42.40;;;;;;5152089;27;45133;-52
2024/01/29 00:23:29;;;;;;;2.47;1.45;;;15.80;42.20;;;;;;5149262;27;45213;-51
2024/01/29 00:25:55;;;;;;;3.20;1.48;;;15.80;42.00;;;;;;5151998;27;45231;-51
2024/01/29 00:28:22;;;;;;;3.25;1.35;;;15.80;42.20;;;;;;5148174;27;45245;-51
2024/01/29 00:30:49;;;;;;;3.95;1.52;;;15.80;42.00;;;;;;5151386;27;45166;-51
2024/01/29 00:33:16;;;;;;;2.25;1.40;;;15.90;42.00;;;;;;5150099;27;46568;-51
2024/01/29 00:35:43;;;;;;;2.38;1.40;;;15.90;42.00;;;;;;5148131;27;45313;-51
2024/01/29 00:38:09;;;;;;;4.20;1.45;;;15.90;42.10;;;;;;5150580;27;45357;-51
2024/01/29 00:40:37;;;;;;;3.20;1.73;;;15.90;42.10;;;;;;5148639;27;45206;-51
2024/01/29 00:43:04;;;;;;;3.58;1.60;;;15.90;41.90;;;;;;5150880;27;45304;-51
2024/01/29 00:45:31;;;;;;;3.42;1.63;;;15.90;42.10;;;;;;5149240;27;45509;-51
2024/01/29 00:47:58;;;;;;;2.90;1.52;;;15.80;42.10;;;;;;5149586;27;45207;-51
2024/01/29 00:50:25;;;;;;;3.08;1.58;;;15.80;42.20;;;;;;5147348;27;45227;-51
2024/01/29 00:52:51;;;;;;;4.05;1.63;;;15.80;42.20;;;;;;5151435;27;45334;-51
2024/01/29 00:55:18;;;;;;;2.38;1.30;;;15.80;42.10;;;;;;5148563;27;45303;-51
2024/01/29 00:57:46;;;;;;;2.63;1.48;;;15.80;42.20;;;;;;5151567;27;45174;-51
2024/01/29 01:00:14;;;;;;;2.55;1.40;;;15.80;42.30;;;;;;5152570;27;45559;-51
2024/01/29 01:02:41;;;;;;;3.00;1.60;;;15.80;42.20;;;;;;5151965;27;45391;-51
2024/01/29 01:05:08;;;;;;;2.80;1.48;;;15.80;42.10;;;;;;5149665;27;45415;-51
2024/01/29 01:07:35;;;;;;;1.90;1.48;;;15.80;42.30;;;;;;5150648;27;45359;-51
2024/01/29 01:10:03;;;;;;;4.40;1.88;;;15.70;42.20;;;;;;5149269;27;45129;-51
2024/01/29 01:12:30;;;;;;;1.63;1.30;;;15.80;42.30;;;;;;5150716;27;45428;-51
2024/01/29 01:14:58;;;;;;;2.70;1.85;;;15.70;42.10;;;;;;5150795;27;45185;-51
2024/01/29 01:17:24;;;;;;;2.83;1.50;;;15.80;42.10;;;;;;5152319;27;45196;-51
2024/01/29 01:19:51;;;;;;;2.92;1.50;;;15.80;42.00;;;;;;5151264;27;45183;-51
2024/01/29 01:22:18;;;;;;;2.85;1.40;;;15.80;43.10;;;;;;5147305;27;46596;-51
2024/01/29 01:24:45;;;;;;;1.63;1.27;;;15.90;42.10;;;;;;5149806;27;45373;-51
2024/01/29 01:27:12;;;;;;;2.15;1.40;;;15.80;41.90;;;;;;5150026;27;45254;-51
2024/01/29 01:29:38;;;;;;;2.38;1.50;;;15.90;42.00;;;;;;5151416;27;45315;-51
2024/01/29 01:32:07;;;;;;;2.67;1.65;;;15.90;42.00;;;;;;5150186;27;46254;-51
2024/01/29 01:34:33;;;;;;;3.08;1.75;;;15.90;41.90;;;;;;5154444;27;45246;-52
2024/01/29 01:37:00;;;;;;;2.42;1.55;;;15.90;41.80;;;;;;5148671;27;45267;-52
2024/01/29 01:39:27;;;;;;;3.67;1.75;;;15.90;41.90;;;;;;5150105;27;45323;-52
2024/01/29 01:41:53;;;;;;;2.58;1.52;;;15.90;41.80;;;;;;5150427;27;46210;-52
2024/01/29 01:44:19;;;;;;;2.85;1.75;;;15.90;41.80;;;;;;5149496;27;45156;-52
2024/01/29 01:46:46;;;;;;;5.07;1.75;;;15.90;42.00;;;;;;5148932;27;45184;-52
2024/01/29 01:49:16;;;;;;;3.80;1.27;;;15.90;42.00;;;;;;5147946;27;45464;-51
2024/01/29 01:51:43;;;;;;;3.13;1.60;;;15.80;42.00;;;;;;5151596;27;45153;-51
2024/01/29 01:54:11;;;;;;;3.58;1.52;;;15.80;42.10;;;;;;5143779;27;44787;-51
2024/01/29 01:56:40;;;;;;;4.60;1.75;;;15.80;43.30;;;;;;5152057;27;45210;-52
2024/01/29 01:59:08;;;;;;;3.90;1.70;;;15.80;42.30;;;;;;5148664;27;45632;-51
2024/01/29 02:01:35;;;;;;;2.13;1.42;;;15.80;42.20;;;;;;5152009;27;45284;-51
2024/01/29 02:04:02;;;;;;;2.97;1.73;;;15.80;42.20;;;;;;5151735;27;45230;-52
2024/01/29 02:06:30;;;;;;;2.83;1.60;;;15.80;42.20;;;;;;5149676;27;45285;-51
2024/01/29 02:08:57;;;;;;;3.10;1.60;;;15.80;42.20;;;;;;5146863;27;45315;-51
2024/01/29 02:11:24;;;;;;;2.85;1.60;;;15.70;42.10;;;;;;5149334;27;46103;-51
2024/01/29 02:13:51;;;;;;;3.80;1.35;;;15.80;42.20;;;;;;5149002;27;45160;-51
2024/01/29 02:16:18;;;;;;;2.08;1.30;;;15.80;42.00;;;;;;5149540;27;45170;-51
2024/01/29 02:18:45;;;;;;;2.97;1.45;;;15.80;41.90;;;;;;5152922;27;45212;-51
2024/01/29 02:21:12;;;;;;;2.55;1.63;;;15.80;41.80;;;;;;5151699;27;46239;-51
2024/01/29 02:23:44;;;;;;;2.33;1.40;;;15.90;41.90;;;;;;5151939;27;45193;-51
2024/01/29 02:26:10;;;;;;;3.08;1.55;;;15.90;41.80;;;;;;5152636;27;45222;-51
2024/01/29 02:28:37;;;;;;;2.45;1.30;;;15.80;41.70;;;;;;5152732;27;45306;-51
2024/01/29 02:31:04;;;;;;;2.25;1.50;;;15.90;41.80;;;;;;5154454;27;46247;-51
2024/01/29 02:33:32;;;;;;;4.80;1.83;;;15.90;41.70;;;;;;5151680;27;45164;-51
2024/01/29 02:35:59;;;;;;;2.58;1.50;;;15.90;41.70;;;;;;5152597;27;45466;-51
2024/01/29 02:38:25;;;;;;;2.38;1.67;;;15.90;41.90;;;;;;5152335;27;45172;-51
2024/01/29 02:40:53;;;;;;;2.17;1.50;;;15.90;41.80;;;;;;5154663;27;47493;-51
2024/01/29 02:43:20;;;;;;;2.22;1.45;;;15.80;41.60;;;;;;5152123;27;45130;-51
2024/01/29 02:45:49;;;;;;;2.40;1.38;;;15.80;41.80;;;;;;5151526;27;45157;-51
2024/01/29 02:48:15;;;;;;;2.58;1.48;;;15.80;41.90;;;;;;5154453;27;45284;-51
2024/01/29 02:50:42;;;;;;;2.90;1.52;;;15.70;41.70;;;;;;5151831;27;46945;-51
2024/01/29 02:53:09;;;;;;;2.95;1.55;;;15.70;41.80;;;;;;5152184;27;45633;-51
2024/01/29 02:55:36;;;;;;;2.83;1.50;;;15.70;41.80;;;;;;5152911;27;45133;-51
2024/01/29 02:58:04;;;;;;;2.80;1.70;;;15.70;41.80;;;;;;5153584;27;45369;-51
2024/01/29 03:00:31;;;;;;;3.83;1.60;;;15.80;44.30;;;;;;5157849;27;46023;-51
2024/01/29 03:02:58;;;;;;;2.08;1.33;;;15.80;43.00;;;;;;5151984;27;44643;-51
2024/01/29 03:05:25;;;;;;;2.17;1.52;;;15.80;42.50;;;;;;5152916;27;45331;-51
2024/01/29 03:07:52;;;;;;;2.85;1.60;;;15.80;42.40;;;;;;5157476;27;45392;-51
2024/01/29 03:10:19;;;;;;;3.42;1.52;;;15.80;42.40;;;;;;5150290;27;46540;-51
2024/01/29 03:12:46;;;;;;;4.03;1.70;;;15.70;42.20;;;;;;5152921;27;45257;-51
2024/01/29 03:15:14;;;;;;;2.50;1.42;;;15.80;42.20;;;;;;5152748;27;45406;-51
2024/01/29 03:17:41;;;;;;;1.95;1.40;;;15.80;42.20;;;;;;5153280;27;45289;-51
2024/01/29 03:20:10;;;;;;;2.47;1.48;;;15.80;42.20;;;;;;5151416;27;47396;-51
2024/01/29 03:22:37;;;;;;;2.65;1.52;;;15.80;41.90;;;;;;5147845;27;44744;-51
2024/01/29 03:25:05;;;;;;;2.53;1.40;;;15.90;42.00;;;;;;5149994;27;45354;-51
2024/01/29 03:27:31;;;;;;;3.25;1.70;;;15.90;41.90;;;;;;5151008;27;45287;-51
2024/01/29 03:29:58;;;;;;;3.28;1.30;;;15.90;41.90;;;;;;5151193;27;47013;-51
2024/01/29 03:32:26;;;;;;;3.53;1.45;;;15.80;41.70;;;;;;5152920;27;45452;-51
2024/01/29 03:34:53;;;;;;;3.40;1.67;;;15.90;41.80;;;;;;5152131;27;45229;-51
2024/01/29 03:37:20;;;;;;;2.17;1.25;;;15.90;41.80;;;;;;5147411;27;45132;-51
2024/01/29 03:39:46;;;;;;;2.05;1.48;;;15.90;41.80;;;;;;5148771;27;46180;-51
2024/01/29 03:42:13;;;;;;;2.95;1.58;;;15.80;41.70;;;;;;5150373;27;45184;-51
2024/01/29 03:44:40;;;;;;;2.10;1.40;;;15.80;41.80;;;;;;5154943;27;45357;-51
2024/01/29 03:47:07;;;;;;;3.13;1.42;;;15.80;41.80;;;;;;5150729;27;44677;-51
2024/01/29 03:49:35;;;;;;;2.20;1.70;;;15.80;41.80;;;;;;5150060;27;45422;-51
2024/01/29 03:52:01;;;;;;;2.55;1.15;;;15.80;41.80;;;;;;5150429;27;45104;-51
2024/01/29 03:54:28;;;;;;;3.45;1.73;;;15.70;41.60;;;;;;5153291;27;44652;-51
2024/01/29 03:56:55;;;;;;;2.08;1.25;;;15.70;41.70;;;;;;5152319;27;45237;-51
2024/01/29 03:59:22;;;;;;;2.90;1.30;;;15.70;41.90;;;;;;5149334;27;45316;-51
2024/01/29 04:01:48;;;;;;;3.10;1.48;;;15.70;41.80;;;;;;5151478;27;45216;-51
2024/01/29 04:04:15;;;;;;;3.53;1.58;;;15.70;41.70;;;;;;5149502;27;45285;-51
2024/01/29 04:06:46;;;;;;;2.92;1.30;;;15.70;41.80;;;;;;5151111;27;45324;-51
2024/01/29 04:09:19;;;;;;;3.70;1.60;;;15.70;41.70;;;;;;5149336;27;45318;-51
2024/01/29 04:11:46;;;;;;;2.92;1.40;;;15.70;41.80;;;;;;5150848;27;45202;-51
2024/01/29 04:14:13;;;;;;;2.65;1.67;;;15.80;41.80;;;;;;5148127;27;45563;-51
2024/01/29 04:16:40;;;;;;;1.80;1.33;;;15.80;41.70;;;;;;5149857;27;45278;-51
2024/01/29 04:19:07;;;;;;;2.28;1.27;;;15.80;41.70;;;;;;5151800;27;45320;-52
2024/01/29 04:21:34;;;;;;;2.42;1.50;;;15.80;41.60;;;;;;5154637;27;45305;-51
2024/01/29 04:24:02;;;;;;;2.58;1.50;;;15.80;42.20;;;;;;5150291;27;45317;-51
2024/01/29 04:26:29;;;;;;;2.97;1.48;;;15.80;41.50;;;;;;5152651;27;45329;-51
2024/01/29 04:28:56;;;;;;;2.90;1.40;;;15.90;41.60;;;;;;5152906;27;46320;-51
2024/01/29 04:31:23;;;;;;;2.50;1.60;;;15.90;41.50;;;;;;5150540;27;45204;-51
2024/01/29 04:33:50;;;;;;;2.88;1.60;;;15.80;41.50;;;;;;5153163;27;45220;-51
2024/01/29 04:36:16;;;;;;;2.55;1.48;;;15.80;41.50;;;;;;5135019;27;45144;-51
2024/01/29 04:38:44;;;;;;;1.40;1.10;;;15.80;41.40;;;;;;5150200;27;46485;-51
2024/01/29 04:41:18;;;;;;;2.47;1.33;;;15.80;41.30;;;;;;5148293;27;45373;-51
2024/01/29 04:43:45;;;;;;;3.13;1.73;;;15.80;41.40;;;;;;5152147;27;45292;-51
2024/01/29 04:46:12;;;;;;;2.10;1.30;;;15.80;41.50;;;;;;5150481;27;45641;-51
2024/01/29 04:48:39;;;;;;;2.53;1.40;;;15.70;42.90;;;;;;5144882;27;46405;-51
2024/01/29 04:51:06;;;;;;;3.17;1.63;;;15.70;41.60;;;;;;5150539;27;45172;-52
2024/01/29 04:53:33;;;;;;;2.97;1.45;;;15.70;41.70;;;;;;5150526;27;45398;-51
2024/01/29 04:56:00;;;;;;;3.20;1.73;;;15.70;41.60;;;;;;5147719;27;45217;-51
2024/01/29 04:58:28;;;;;;;2.15;1.30;;;15.70;43.00;;;;;;5151138;27;46017;-51
2024/01/29 05:00:55;;;;;;;2.55;1.65;;;15.70;41.70;;;;;;5150432;27;45204;-51
2024/01/29 05:03:22;;;;;;;2.42;1.25;;;15.70;42.90;;;;;;5149047;27;45387;-51
2024/01/29 05:05:49;;;;;;;3.13;1.45;;;15.80;42.20;;;;;;5150833;27;45146;-51
2024/01/29 05:08:18;;;;;;;3.13;1.50;;;15.80;42.00;;;;;;5149765;27;45266;-51
2024/01/29 05:10:45;;;;;;;2.20;1.42;;;15.70;41.70;;;;;;5148165;27;46115;-51
2024/01/29 05:13:12;;;;;;;2.25;1.50;;;15.70;41.80;;;;;;5149611;27;45337;-51
2024/01/29 05:15:40;;;;;;;2.40;1.55;;;15.70;41.60;;;;;;5151108;27;45149;-51
2024/01/29 05:18:07;;;;;;;3.47;1.58;;;15.80;41.60;;;;;;5149710;27;45459;-51
2024/01/29 05:20:33;;;;;;;3.15;1.40;;;15.80;41.50;;;;;;5150093;27;45340;-51
2024/01/29 05:23:00;;;;;;;1.98;1.30;;;15.80;41.60;;;;;;5150166;27;45158;-51
2024/01/29 05:25:27;;;;;;;2.47;1.50;;;15.80;41.40;;;;;;5147371;27;46099;-51
2024/01/29 05:27:53;;;;;;;2.72;1.58;;;15.80;41.50;;;;;;5153261;27;45305;-51
2024/01/29 05:30:20;;;;;;;1.90;1.27;;;15.80;41.50;;;;;;5149783;27;45191;-51
2024/01/29 05:32:48;;;;;;;2.28;1.45;;;15.80;41.50;;;;;;5151470;27;45097;-51
2024/01/29 05:35:15;;;;;;;2.47;1.63;;;15.80;41.50;;;;;;5151977;27;45626;-51
2024/01/29 05:37:42;;;;;;;3.65;1.63;;;15.80;41.40;;;;;;5148410;27;46522;-51
2024/01/29 05:40:11;;;;;;;3.20;1.52;;;15.80;41.40;;;;;;5149675;27;45170;-51
2024/01/29 05:42:38;;;;;;;3.45;1.85;;;15.80;41.50;;;;;;5149020;27;45164;-51
2024/01/29 05:45:05;;;;;;;3.00;1.50;;;15.70;41.70;;;;;;5154928;27;45299;-51
2024/01/29 05:47:34;;;;;;;2.05;1.50;;;15.70;42.20;;;;;;5148160;27;47447;-51
2024/01/29 05:50:05;;;;;;;3.67;1.55;;;15.60;42.40;;;;;;5152703;27;45298;-52
2024/01/29 05:52:33;;;;;;;4.15;1.60;;;15.60;42.40;;;;;;5149465;27;44678;-52
2024/01/29 05:55:00;;;;;;;3.17;1.70;;;15.60;42.50;;;;;;5150805;27;45560;-52
2024/01/29 05:57:27;;;;;;;2.42;1.73;;;15.60;42.40;;;;;;5148692;27;45246;-52
2024/01/29 05:59:53;;;;;;;2.75;1.80;;;15.60;42.20;;;;;;5150197;27;45186;-52
2024/01/29 06:02:20;;;;;;;3.38;1.90;;;15.60;42.10;;;;;;5150066;27;45290;-52
2024/01/29 06:04:47;;;;;;;2.95;1.45;;;15.50;41.90;;;;;;5157225;27;44886;-52
2024/01/29 06:07:15;;;;;;;2.60;1.60;;;15.50;41.80;;;;;;5153541;27;47450;-52
2024/01/29 06:09:42;;;;;;;2.47;1.40;;;15.50;41.40;;;;;;5152215;27;45194;-52
2024/01/29 06:12:09;;;;;;;2.92;1.60;;;15.50;41.30;;;;;;5154199;27;45263;-52
2024/01/29 06:14:36;;;;;;;3.10;1.77;;;15.50;41.10;;;;;;5155323;27;45591;-52
2024/01/29 06:17:02;;;;;;;4.13;1.70;;;15.50;41.00;;;;;;5151492;27;45367;-52
2024/01/29 06:19:30;;;;;;;3.45;1.40;;;15.50;41.00;;;;;;5156789;27;45465;-52
2024/01/29 06:21:56;;;;;;;3.38;1.73;;;15.50;40.80;;;;;;5153692;27;45156;-52
2024/01/29 06:24:24;;;;;;;2.22;1.63;;;15.50;40.80;;;;;;5151031;27;45137;-52
2024/01/29 06:26:51;;;;;;;1.73;1.33;;;15.50;40.70;;;;;;5152073;27;45277;-52
2024/01/29 06:29:18;;;;;;;3.05;1.60;;;15.50;40.80;;;;;;5152133;27;45661;-51
2024/01/29 06:31:45;;;;;;;2.85;1.55;;;15.50;40.50;;;;;;5151675;27;45659;-52
2024/01/29 06:34:11;;;;;;;2.95;1.70;;;15.50;40.60;;;;;;5152538;27;45105;-51
2024/01/29 06:36:38;;;;;;;3.47;2.15;;;15.50;40.80;;;;;;5154638;27;45436;-51
2024/01/29 06:39:07;;;;;;;3.28;1.75;;;15.60;40.80;;;;;;5153706;27;45198;-52
2024/01/29 06:41:35;;;;;;;3.95;1.55;;;15.50;40.70;;;;;;5159518;27;45622;-52
2024/01/29 06:44:02;;;;;;;2.10;1.67;;;15.50;40.70;;;;;;5152998;27;45121;-52
2024/01/29 06:46:29;;;;;;;2.38;1.55;;;15.50;40.90;;;;;;5155612;27;45231;-52
2024/01/29 06:48:55;;;;;;;3.90;1.90;;;15.50;40.70;;;;;;5152865;27;45181;-52
2024/01/29 06:51:22;;;;;;;2.67;1.60;;;15.50;40.80;;;;;;5153257;27;44681;-52
2024/01/29 06:53:49;;;;;;;4.82;1.80;;;15.50;40.90;;;;;;5155166;27;45379;-52
2024/01/29 06:56:15;;;;;;;2.65;1.63;;;15.50;40.90;;;;;;5153039;27;46210;-52
2024/01/29 06:58:45;;;;;;;3.75;1.60;;;15.50;41.00;;;;;;5153679;27;45727;-52
2024/01/29 07:01:12;;;;;;;2.53;1.60;;;15.50;40.90;;;;;;5153443;27;45211;-51
2024/01/29 07:03:39;;;;;;;3.33;1.75;;;15.60;41.10;;;;;;5156143;27;45480;-51
2024/01/29 07:06:06;;;;;;;2.72;1.70;;;15.50;41.00;;;;;;5150785;27;45283;-51
2024/01/29 07:08:32;;;;;;;3.20;1.63;;;15.50;41.10;;;;;;5154116;27;45155;-51
2024/01/29 07:10:59;;;;;;;2.90;1.60;;;15.50;41.10;;;;;;5150246;27;45088;-51
2024/01/29 07:13:26;;;;;;;2.90;1.60;;;15.60;41.10;;;;;;5153040;27;45465;-51
2024/01/29 07:15:54;;;;;;;2.28;1.60;;;15.60;41.00;;;;;;5155480;27;45322;-51
2024/01/29 07:18:22;;;;;;;2.88;1.60;;;15.60;40.90;;;;;;5152863;27;45146;-51
2024/01/29 07:20:50;;;;;;;3.50;1.75;;;15.60;40.70;;;;;;5154936;27;45201;-51
2024/01/29 07:23:17;;;;;;;3.33;1.52;;;15.60;40.70;;;;;;5150910;27;45345;-52
2024/01/29 07:25:44;;;;;;;2.15;1.70;;;15.70;40.80;;;;;;5154504;27;45374;-52
2024/01/29 07:28:11;;;;;;;2.53;1.60;;;15.70;40.80;;;;;;5154882;27;45263;-51
2024/01/29 07:30:37;;;;;;;3.97;1.50;;;15.70;40.70;;;;;;5154508;27;45150;-51
2024/01/29 07:33:06;;;;;;;3.75;1.80;;;15.70;40.70;;;;;;5152912;27;44711;-51
2024/01/29 07:35:33;;;;;;;2.67;1.73;;;15.70;40.80;;;;;;5155019;27;47270;-51
2024/01/29 07:38:00;;;;;;;3.20;1.90;;;15.70;40.70;;;;;;5152991;27;45192;-51
2024/01/29 07:40:27;;;;;;;3.40;1.80;;;15.70;40.80;;;;;;5149850;27;45304;-51
2024/01/29 07:42:53;;;;;;;2.88;1.90;;;15.70;40.90;;;;;;5158111;27;45286;-51
2024/01/29 07:45:20;;;;;;;2.10;1.52;;;15.60;40.90;;;;;;5154387;27;45245;-51
2024/01/29 07:47:47;;;;;;;3.95;1.92;;;15.60;41.00;;;;;;5152575;27;45205;-51
2024/01/29 07:50:15;;;;;;;2.85;1.67;;;15.60;41.00;;;;;;5152245;27;45302;-51
2024/01/29 07:52:42;;;;;;;3.78;1.70;;;15.60;41.00;;;;;;5150082;27;45141;-51
2024/01/29 07:55:08;;;;;;;3.25;1.50;;;15.60;40.90;;;;;;5149918;27;47259;-51
2024/01/29 07:57:35;;;;;;;4.03;1.70;;;15.60;41.10;;;;;;5150559;27;45215;-51
2024/01/29 08:00:03;;;;;;;3.85;2.20;;;15.60;41.10;;;;;;5152346;27;45310;-52
2024/01/29 08:02:30;;;;;;;3.92;2.00;;;15.60;41.10;;;;;;5151820;27;45266;-52
2024/01/29 08:04:57;;;;;;;3.95;2.08;;;15.60;41.10;;;;;;5154352;27;45137;-51
2024/01/29 08:07:26;;;;;;;2.83;1.83;;;15.50;41.70;;;;;;5149367;27;45299;-52
2024/01/29 08:09:53;;;;;;;3.33;1.77;;;15.60;46.90;;;;;;5153048;27;45214;-52
2024/01/29 08:12:20;;;;;;;5.13;1.83;;;15.60;44.50;;;;;;5149605;27;45233;-52
2024/01/29 08:14:48;;;;;;;2.72;1.90;;;15.60;43.40;;;;;;5154292;27;46497;-52
2024/01/29 08:17:15;;;;;;;2.88;1.73;;;15.60;42.90;;;;;;5152508;27;45206;-52
2024/01/29 08:19:41;;;;;;;3.40;2.10;;;15.60;42.50;;;;;;5150250;27;45242;-52
2024/01/29 08:22:08;;;;;;;3.72;1.85;;;15.60;42.20;;;;;;5154216;27;45101;-51
2024/01/29 08:24:37;;;;;;;4.07;1.90;;;15.60;42.10;;;;;;5148932;27;46313;-52
2024/01/29 08:27:04;;;;;;;2.85;1.63;;;15.60;42.00;;;;;;5149526;27;45089;-51
2024/01/29 08:29:31;;;;;;;3.38;1.85;;;15.60;41.90;;;;;;5150412;27;45228;-51
2024/01/29 08:31:58;;;;;;;3.72;1.60;;;15.60;42.00;;;;;;5150843;27;45144;-52
2024/01/29 08:34:25;;;;;;;2.85;1.67;;;15.60;41.90;;;;;;5146799;27;47485;-51
2024/01/29 08:36:52;;;;;;;3.92;2.00;;;15.60;41.90;;;;;;5147237;27;45862;-52
2024/01/29 08:39:19;;;;;;;3.72;1.85;;;15.60;42.00;;;;;;5149496;27;45307;-52
2024/01/29 08:41:47;;;;;;;3.35;1.80;;;15.60;42.00;;;;;;5151173;27;45590;-51
2024/01/29 08:44:14;;;;;;;3.72;2.28;;;15.60;42.20;;;;;;5151382;27;46201;-51
2024/01/29 08:46:41;;;;;;;3.38;1.95;;;15.60;42.20;;;;;;5148657;27;45192;-51
2024/01/29 08:49:08;;;;;;;3.50;1.60;;;15.60;42.20;;;;;;5152363;27;45183;-51
2024/01/29 08:51:35;;;;;;;6.90;1.88;;;15.60;42.20;;;;;;5151753;27;45346;-51
2024/01/29 08:54:01;;;;;;;2.55;2.00;;;15.50;42.20;;;;;;5150349;27;47460;-51
2024/01/29 08:56:30;;;;;;;5.55;2.15;;;15.60;42.20;;;;;;5152037;27;45153;-52
2024/01/29 08:58:58;;;;;;;4.53;1.73;;;15.60;42.30;;;;;;5151817;27;45244;-51
2024/01/29 09:01:25;;;;;;;3.88;2.55;;;15.60;42.40;;;;;;5154908;27;45249;-52
2024/01/29 09:03:52;;;;;;;2.83;1.80;;;15.60;42.40;;;;;;5150968;27;45320;-51
2024/01/29 09:06:19;;;;;;;3.65;2.00;;;15.50;42.30;;;;;;5152435;27;45402;-52
2024/01/29 09:08:46;;;;;;;5.10;2.22;;;15.60;42.50;;;;;;5153290;27;45141;-52
2024/01/29 09:11:13;;;;;;;3.22;1.98;;;15.60;42.50;;;;;;5150391;27;45393;-51
2024/01/29 09:13:39;;;;;;;3.97;2.22;;;15.60;42.50;;;;;;5152883;27;47090;-51
2024/01/29 09:16:08;;;;;;;3.55;2.00;;;15.60;42.30;;;;;;5150778;27;45394;-52
2024/01/29 09:18:35;;;;;;;3.80;2.20;;;15.70;42.40;;;;;;5153392;27;45387;-52
2024/01/29 09:21:02;;;;;;;4.03;2.00;;;15.70;42.40;;;;;;5149082;27;45355;-52
2024/01/29 09:23:29;;;;;;;3.42;2.00;;;15.70;42.40;;;;;;5146089;27;46534;-51
2024/01/29 09:25:56;;;;;;;2.85;1.90;;;15.70;42.40;;;;;;5148642;27;45397;-52
2024/01/29 09:28:23;;;;;;;4.57;2.08;;;15.70;42.40;;;;;;5149963;27;45539;-51
2024/01/29 09:30:50;;;;;;;4.93;2.13;;;15.70;42.40;;;;;;5152685;27;45309;-51
2024/01/29 09:33:19;;;;;;;3.65;2.17;;;15.70;42.50;;;;;;5149765;27;48010;-51
2024/01/29 09:35:46;;;;;;;3.40;2.38;;;15.70;42.50;;;;;;5151160;27;45197;-51
2024/01/29 09:38:14;;;;;;;3.58;2.13;;;15.70;42.60;;;;;;5148859;27;45178;-51
2024/01/29 09:40:43;;;;;;;3.28;2.03;;;15.70;42.80;;;;;;5151062;27;45421;-52
2024/01/29 09:43:12;;;;;;;4.07;2.10;;;15.70;42.90;;;;;;5151402;27;46211;-51
2024/01/29 09:45:41;;;;;;;4.90;1.92;;;15.60;42.90;;;;;;5152965;27;45322;-52
2024/01/29 09:48:12;;;;;;;3.60;2.03;;;15.70;43.00;;;;;;5150646;27;45358;-51
2024/01/29 09:50:41;;;;;;;4.15;2.13;;;15.60;42.90;;;;;;5150193;27;45091;-51
2024/01/29 09:53:11;;;;;;;2.30;1.98;;;15.60;43.10;;;;;;5154381;27;45266;-51
2024/01/29 09:55:38;;;;;;;4.85;2.42;;;15.60;43.00;;;;;;5148057;27;45450;-52
2024/01/29 09:58:05;;;;;;;5.07;2.40;;;15.70;43.10;;;;;;5149974;27;45399;-52
2024/01/29 10:00:32;;;;;;;3.25;2.05;;;15.60;43.10;;;;;;5150364;27;45259;-52
2024/01/29 10:03:01;;;;;;;4.72;2.35;;;15.70;43.20;;;;;;5149872;27;45141;-52
2024/01/29 10:05:31;;;;;;;3.58;2.13;;;15.70;43.30;;;;;;5148623;27;45117;-52
2024/01/29 10:08:00;;;;;;;3.88;2.28;;;15.70;43.30;;;;;;5149712;27;45222;-52
2024/01/29 10:10:27;;;;;;;3.80;2.08;;;15.70;43.40;;;;;;5149399;27;45430;-52
2024/01/29 10:13:04;;;;;;;3.53;1.95;;;15.70;43.40;;;;;;5151569;27;45195;-52
2024/01/29 10:15:31;;;;;;;5.32;2.05;;;15.70;43.40;;;;;;5147560;27;45945;-51
2024/01/29 10:17:58;;;;;;;3.45;2.15;;;15.80;43.40;;;;;;5148468;27;45180;-51
2024/01/29 10:20:25;;;;;;;3.35;2.05;;;15.80;43.50;;;;;;5151768;27;44934;-52
2024/01/29 10:23:00;;;;;;;2.70;1.90;;;15.80;43.50;;;;;;5149491;27;46226;-52
2024/01/29 10:25:27;;;;;;;5.20;2.55;;;15.80;43.60;;;;;;5146856;27;45685;-52
2024/01/29 10:27:54;;;;;;;3.83;2.33;;;15.80;43.60;;;;;;5150710;27;45175;-51
2024/01/29 10:30:22;;;;;;;3.85;1.88;;;15.80;43.70;;;;;;5147372;27;45137;-52
2024/01/29 10:32:48;;;;;;;2.75;2.10;;;15.90;43.70;;;;;;5152914;27;46566;-52
2024/01/29 10:35:15;;;;;;;3.70;2.17;;;15.80;43.90;;;;;;5149645;27;45315;-52
2024/01/29 10:37:47;;;;;;;3.33;2.15;;;15.80;44.00;;;;;;5150230;27;45432;-52
2024/01/29 10:40:17;;;;;;;4.47;1.92;;;15.80;44.10;;;;;;5144671;27;45273;-51
2024/01/29 10:42:48;;;;;;;3.67;2.67;;;15.70;44.20;;;;;;5152424;27;45256;-51
2024/01/29 10:45:19;;;;;;;4.32;2.47;;;15.70;44.20;;;;;;5147719;27;45384;-51
2024/01/29 10:47:48;;;;;;;4.78;2.30;;;15.70;44.40;;;;;;5157302;27;44663;-51
2024/01/29 10:50:18;;;;;;;4.93;2.47;;;15.70;44.50;;;;;;5150358;27;45664;-51
2024/01/29 10:52:45;;;;;;;4.45;2.50;;;15.70;45.80;;;;;;5157629;27;45374;-51
2024/01/29 10:55:16;;;;;;;3.85;2.20;;;15.70;44.70;;;;;;5152199;27;45134;-51
2024/01/29 10:57:46;;;;;;;4.80;2.40;;;15.70;44.80;;;;;;5150802;27;45189;-51
2024/01/29 11:00:16;;;;;;;3.95;2.60;;;15.70;44.80;;;;;;5152039;27;45231;-51
2024/01/29 11:02:44;;;;;;;6.30;2.13;;;15.70;44.90;;;;;;5154280;27;45286;-52
2024/01/29 11:05:14;;;;;;;3.55;2.20;;;15.70;45.00;;;;;;5154770;27;45138;-51
2024/01/29 11:07:44;;;;;;;2.60;1.73;;;15.70;45.00;;;;;;5155434;27;45331;-51
2024/01/29 11:10:19;;;;;;;5.93;2.33;;;15.70;45.10;;;;;;5151416;27;45138;-51
2024/01/29 11:12:47;;;;;;;2.35;1.88;;;15.70;45.00;;;;;;5153763;27;47965;-51
2024/01/29 11:15:14;;;;;;;3.20;2.03;;;15.80;45.30;;;;;;5150580;27;45231;-51
2024/01/29 11:17:42;;;;;;;4.53;2.42;;;15.80;45.30;;;;;;5157915;27;45110;-51
2024/01/29 11:20:12;;;;;;;3.83;2.08;;;15.80;45.10;;;;;;5152012;27;45352;-51
2024/01/29 11:22:40;;;;;;;4.55;2.40;;;15.80;45.40;;;;;;5157567;27;48421;-51
2024/01/29 11:25:08;;;;;;;4.65;2.22;;;15.80;45.40;;;;;;5151389;27;45265;-51
2024/01/29 11:27:39;;;;;;;4.50;2.15;;;15.90;45.50;;;;;;5155762;27;45335;-51
2024/01/29 11:30:13;;;;;;;2.83;2.05;;;15.80;45.40;;;;;;5151413;27;45674;-51
2024/01/29 11:32:41;;;;;;;3.08;2.00;;;15.90;45.50;;;;;;5154716;27;45358;-51
2024/01/29 11:35:15;;;;;;;2.80;1.77;;;15.90;45.50;;;;;;5149836;27;45347;-51
2024/01/29 11:37:42;;;;;;;3.28;2.15;;;15.90;46.00;;;;;;5149336;27;45161;-51
2024/01/29 11:40:32;;;;;;;5.82;2.67;;;15.80;46.10;;;;;;5151957;27;45209;-51
2024/01/29 11:43:00;;;;;;;3.35;2.08;;;15.80;46.50;;;;;;5148044;27;45429;-51
2024/01/29 11:45:30;;;;;;;4.15;2.20;;;15.70;46.30;;;;;;5151613;27;45193;-51
2024/01/29 11:47:58;;;;;;;2.95;2.25;;;15.70;46.40;;;;;;5156777;27;45225;-52
2024/01/29 11:50:25;;;;;;;3.65;2.22;;;15.70;46.60;;;;;;5149243;27;45233;-52
2024/01/29 11:52:52;;;;;;;4.95;2.38;;;15.80;46.60;;;;;;5153483;27;46419;-51
2024/01/29 11:55:21;;;;;;;3.90;2.33;;;15.90;46.60;;;;;;5148525;27;45177;-52
2024/01/29 11:57:51;;;;;;;3.78;2.30;;;16.00;46.20;;;;;;5151506;27;45254;-51
2024/01/29 12:00:20;;;;;;;3.15;2.20;;;16.00;45.90;;;;;;5152647;27;45345;-51
2024/01/29 12:02:48;;;;;;;4.57;2.53;;;16.10;45.90;;;;;;5152842;27;47247;-52
2024/01/29 12:05:16;;;;;;;4.43;2.00;;;16.10;45.90;;;;;;5149065;27;45333;-51
2024/01/29 12:07:43;;;;;;;7.13;2.55;;;16.10;45.80;;;;;;5150577;27;45277;-51
2024/01/29 12:10:10;;;;;;;3.05;1.98;;;16.10;46.00;;;;;;5148064;27;45362;-51
2024/01/29 12:12:37;;;;;;;3.30;2.30;;;16.10;46.10;;;;;;5149860;27;45740;-51
2024/01/29 12:15:06;;;;;;;4.32;2.42;;;16.10;46.20;;;;;;5150068;27;46339;-51
2024/01/29 12:17:37;;;;;;;3.65;2.40;;;16.10;46.20;;;;;;5150631;27;45366;-51
2024/01/29 12:20:05;;;;;;;4.50;2.30;;;16.10;46.40;;;;;;5155078;27;45110;-52
2024/01/29 12:22:31;;;;;;;4.47;2.50;;;16.10;46.60;;;;;;5153316;27;46272;-51
2024/01/29 12:25:00;;;;;;;6.38;2.67;;;16.10;46.70;;;;;;5154332;27;45266;-52
2024/01/29 12:27:26;;;;;;;5.03;2.70;;;16.00;46.90;;;;;;5148773;27;45355;-52
2024/01/29 12:29:54;;;;;;;5.30;2.42;;;16.00;47.00;;;;;;5153502;27;45465;-51
2024/01/29 12:32:21;;;;;;;3.75;2.30;;;16.00;47.20;;;;;;5152908;27;46254;-51
2024/01/29 12:34:50;;;;;;;5.05;2.35;;;16.00;47.20;;;;;;5152970;27;45192;-51
2024/01/29 12:37:21;;;;;;;3.55;2.33;;;16.00;47.30;;;;;;5150580;27;45310;-51
2024/01/29 12:39:52;;;;;;;5.55;2.35;;;15.90;47.50;;;;;;5148473;27;45476;-52
2024/01/29 12:42:19;;;;;;;4.30;2.13;;;15.90;47.70;;;;;;5150568;27;45243;-52
2024/01/29 12:44:47;;;;;;;4.53;2.15;;;15.90;47.90;;;;;;5155903;27;45404;-51
2024/01/29 12:47:15;;;;;;;3.35;2.33;;;15.90;48.10;;;;;;5150146;27;45229;-51
2024/01/29 12:49:42;;;;;;;4.38;2.42;;;15.90;48.00;;;;;;5149814;27;44929;-51